Time;durP1;ratioP1;P1;durP2;ratioP2;P2;SDS_P1;SDS_P2;PMS_P1;PMS_P2;Temp;Humidity;BMP_temperature;BMP_pressure;BME280_temperature;BME280_humidity;BME280_pressure;Samples;Min_cycle;Max_cycle;Signal;HPM_P1;HPM_P2
2023/04/01 00:02:09;;;;;;;1.07;0.60;;;12.70;98.50;;;;;;5009660;28;20984;-84
2023/04/01 00:05:24;;;;;;;0.50;0.40;;;12.70;98.70;;;;;;5007484;28;20544;-83
2023/04/01 00:08:39;;;;;;;0.57;0.57;;;12.80;98.80;;;;;;5045864;28;20531;-84
2023/04/01 00:11:40;;;;;;;0.40;0.40;;;12.90;98.70;;;;;;5055719;28;21025;-83
2023/04/01 00:14:40;;;;;;;;;;;;;;;;;;;;;
2023/04/01 00:17:25;;;;;;;1.10;0.50;;;12.80;98.20;;;;;;5051951;28;20458;-84
2023/04/01 00:20:50;;;;;;;0.50;0.50;;;12.80;98.50;;;;;;5051509;28;20951;-82
2023/04/01 00:23:52;;;;;;;1.23;0.60;;;12.70;98.80;;;;;;5048616;28;20495;-83
2023/04/01 00:26:43;;;;;;;0.57;0.50;;;12.60;98.90;;;;;;5050844;28;20464;-82
2023/04/01 00:29:23;;;;;;;0.70;0.70;;;12.70;98.70;;;;;;5052259;28;20560;-84
2023/04/01 00:31:59;;;;;;;1.13;0.60;;;12.80;98.40;;;;;;5046294;28;20469;-83
2023/04/01 00:34:28;;;;;;;1.10;0.40;;;12.70;98.30;;;;;;5047904;28;20456;-83
2023/04/01 00:37:39;;;;;;;0.80;0.40;;;12.80;98.50;;;;;;5051108;28;20452;-84
2023/04/01 00:41:10;;;;;;;1.00;0.50;;;12.70;98.80;;;;;;5051053;28;21011;-83
2023/04/01 00:44:44;;;;;;;0.60;0.40;;;12.70;98.90;;;;;;5043503;28;20477;-83
2023/04/01 00:47:43;;;;;;;0.40;0.40;;;12.60;99.20;;;;;;5035401;28;20457;-83
2023/04/01 00:50:41;;;;;;;;;;;;;;;;;;;;;
2023/04/01 00:53:44;;;;;;;0.80;0.40;;;12.80;98.70;;;;;;5049171;28;20475;-82
2023/04/01 00:57:22;;;;;;;0.90;0.50;;;12.80;98.80;;;;;;5053645;28;20461;-83
2023/04/01 01:00:37;;;;;;;0.70;0.40;;;12.90;98.70;;;;;;5007976;28;20469;-83
2023/04/01 01:03:56;;;;;;;0.43;0.43;;;12.70;98.60;;;;;;5047401;28;20472;-83
2023/04/01 01:07:16;;;;;;;0.60;0.40;;;12.60;99.10;;;;;;5050376;28;20452;-82
2023/04/01 01:10:17;;;;;;;0.50;0.50;;;12.70;98.80;;;;;;5044106;28;20480;-84
2023/04/01 01:13:15;;;;;;;0.40;0.40;;;12.80;98.80;;;;;;5054072;28;20467;-83
2023/04/01 01:16:40;;;;;;;0.50;0.43;;;12.80;98.80;;;;;;5065792;28;20459;-83
2023/04/01 01:20:14;;;;;;;0.97;0.70;;;12.80;98.70;;;;;;5058173;28;20428;-81
2023/04/01 01:23:32;;;;;;;1.17;0.37;;;12.80;98.80;;;;;;5059148;28;20888;-83
2023/04/01 01:26:37;;;;;;;0.40;0.40;;;12.70;98.70;;;;;;5085964;28;20444;-82
2023/04/01 01:29:36;;;;;;;0.93;0.40;;;12.70;99.00;;;;;;5072301;28;20472;-82
2023/04/01 01:32:42;;;;;;;1.70;0.80;;;12.70;99.10;;;;;;5071359;28;20468;-83
2023/04/01 01:35:42;;;;;;;2.70;0.50;;;12.70;98.80;;;;;;5074736;28;20443;-84
2023/04/01 01:38:27;;;;;;;0.60;0.50;;;12.50;99.10;;;;;;5066750;28;20461;-83
2023/04/01 01:41:10;;;;;;;0.60;0.40;;;12.60;99.10;;;;;;5049350;28;20460;-82
2023/04/01 01:47:20;;;;;;;1.23;0.50;;;12.70;99.40;;;;;;5045125;28;20476;-82
2023/04/01 01:50:20;;;;;;;0.73;0.50;;;12.70;99.10;;;;;;5056628;28;20484;-82
2023/04/01 01:53:17;;;;;;;0.30;0.30;;;12.70;99.70;;;;;;5062269;28;20519;-82
2023/04/01 01:59:28;;;;;;;1.47;0.43;;;12.50;99.50;;;;;;5028958;28;20434;-83
2023/04/01 02:02:25;;;;;;;0.77;0.43;;;12.60;99.80;;;;;;5029718;28;20466;-83
2023/04/01 02:05:41;;;;;;;0.87;0.50;;;12.50;99.90;;;;;;5067461;28;20468;-84
2023/04/01 02:09:22;;;;;;;0.67;0.33;;;12.60;99.90;;;;;;5069535;28;20473;-82
2023/04/01 02:15:20;;;;;;;0.40;0.40;;;12.40;99.90;;;;;;5076049;28;20467;-82
2023/04/01 02:18:19;;;;;;;0.70;0.50;;;12.30;99.90;;;;;;5071261;28;20432;-82
2023/04/01 02:21:22;;;;;;;0.70;0.50;;;12.50;99.90;;;;;;5061265;28;20441;-83
2023/04/01 02:24:17;;;;;;;0.43;0.40;;;12.50;99.90;;;;;;5045467;28;20464;-84
2023/04/01 02:27:04;;;;;;;0.83;0.40;;;12.50;99.90;;;;;;5050805;28;20451;-83
2023/04/01 02:30:07;;;;;;;0.50;0.40;;;12.40;99.90;;;;;;5060610;28;20479;-81
2023/04/01 02:33:00;;;;;;;0.40;0.40;;;12.30;99.90;;;;;;5064521;28;20519;-83
2023/04/01 02:39:27;;;;;;;2.00;0.70;;;12.10;99.90;;;;;;5056258;28;20570;-81
2023/04/01 02:42:16;;;;;;;1.23;0.50;;;12.20;99.90;;;;;;5041271;28;20462;-82
2023/04/01 02:45:03;;;;;;;2.43;0.83;;;12.20;99.90;;;;;;5051092;28;20464;-83
2023/04/01 02:47:40;;;;;;;1.77;0.40;;;11.90;99.90;;;;;;5048271;28;20451;-83
2023/04/01 02:50:27;;;;;;;3.63;0.50;;;12.10;99.90;;;;;;5059012;28;20509;-82
2023/04/01 02:53:28;;;;;;;0.30;0.30;;;12.10;99.90;;;;;;5051246;28;20453;-82
2023/04/01 02:56:14;;;;;;;0.70;0.50;;;12.10;99.90;;;;;;5053515;28;20445;-81
2023/04/01 02:59:04;;;;;;;0.40;0.40;;;12.00;99.90;;;;;;5061060;28;21005;-82
2023/04/01 03:01:43;;;;;;;1.20;0.40;;;12.00;99.90;;;;;;5043530;28;20556;-84
2023/04/01 03:04:28;;;;;;;0.30;0.30;;;11.90;99.90;;;;;;5048320;28;20490;-84
2023/04/01 03:07:01;;;;;;;0.40;0.30;;;11.90;99.90;;;;;;5049238;28;20460;-83
2023/04/01 03:09:47;;;;;;;1.10;0.50;;;11.90;99.90;;;;;;5048179;28;20561;-83
2023/04/01 03:12:44;;;;;;;0.47;0.40;;;11.90;99.90;;;;;;5050017;28;20483;-83
2023/04/01 03:15:21;;;;;;;0.90;0.40;;;12.10;99.90;;;;;;5052180;28;20448;-81
2023/04/01 03:18:14;;;;;;;1.13;0.40;;;12.00;99.90;;;;;;5048868;28;20457;-83
2023/04/01 03:20:50;;;;;;;0.63;0.40;;;12.10;99.90;;;;;;5042268;28;20481;-84
2023/04/01 03:23:30;;;;;;;0.40;0.30;;;12.00;99.90;;;;;;5054818;28;20925;-82
2023/04/01 03:26:03;;;;;;;0.97;0.30;;;11.80;99.90;;;;;;5049426;28;20452;-82
2023/04/01 03:28:39;;;;;;;0.43;0.30;;;11.90;99.90;;;;;;5042294;28;20554;-83
2023/04/01 03:31:13;;;;;;;0.40;0.40;;;12.00;99.90;;;;;;5045967;28;20531;-81
2023/04/01 03:33:59;;;;;;;0.60;0.40;;;12.10;99.90;;;;;;5051752;28;20461;-83
2023/04/01 03:36:31;;;;;;;0.50;0.40;;;12.10;99.90;;;;;;5052783;28;21007;-83
2023/04/01 03:39:22;;;;;;;0.50;0.30;;;12.00;99.90;;;;;;5054538;28;20459;-84
2023/04/01 03:42:08;;;;;;;0.50;0.30;;;12.10;99.90;;;;;;5049744;28;20480;-83
2023/04/01 03:44:35;;;;;;;0.77;0.40;;;12.00;99.90;;;;;;5052174;28;20513;-83
2023/04/01 03:47:11;;;;;;;0.80;0.40;;;12.10;99.90;;;;;;5050770;28;20460;-83
2023/04/01 03:52:51;;;;;;;0.50;0.40;;;12.10;99.90;;;;;;5049623;28;20468;-84
2023/04/01 03:55:28;;;;;;;0.50;0.30;;;12.00;99.90;;;;;;5051871;28;20512;-82
2023/04/01 03:57:55;;;;;;;0.90;0.40;;;12.40;99.90;;;;;;5050515;28;20456;-82
2023/04/01 04:00:31;;;;;;;0.87;0.40;;;12.40;99.90;;;;;;5048211;28;20456;-82
2023/04/01 04:03:11;;;;;;;2.03;0.40;;;12.40;99.90;;;;;;5049393;28;20511;-83
2023/04/01 04:05:53;;;;;;;1.03;0.40;;;12.40;99.90;;;;;;5044645;28;20498;-81
2023/04/01 04:08:45;;;;;;;1.90;0.40;;;12.40;99.90;;;;;;5052560;28;20499;-83
2023/04/01 04:11:45;;;;;;;0.80;0.40;;;12.40;99.90;;;;;;5036353;28;20445;-83
2023/04/01 04:14:18;;;;;;;0.40;0.30;;;12.40;99.90;;;;;;5052433;28;20530;-83
2023/04/01 04:16:52;;;;;;;1.30;0.40;;;12.30;99.90;;;;;;5053472;28;20444;-83
2023/04/01 04:19:40;;;;;;;0.93;0.50;;;12.20;99.90;;;;;;5048470;28;20456;-84
2023/04/01 04:22:26;;;;;;;0.30;0.30;;;12.20;99.90;;;;;;5050592;28;20993;-84
2023/04/01 04:25:18;;;;;;;0.50;0.50;;;12.30;99.90;;;;;;5050992;28;20480;-84
2023/04/01 04:28:12;;;;;;;1.50;0.57;;;12.00;99.90;;;;;;5049646;28;20456;-83
2023/04/01 04:30:49;;;;;;;0.40;0.37;;;12.20;99.90;;;;;;5048715;28;20458;-84
2023/04/01 04:33:21;;;;;;;0.40;0.30;;;12.00;99.90;;;;;;5046938;28;20471;-85
2023/04/01 04:36:12;;;;;;;0.60;0.40;;;12.30;99.90;;;;;;5049847;28;20453;-82
2023/04/01 04:38:51;;;;;;;0.30;0.30;;;12.00;99.90;;;;;;5060864;28;20451;-83
2023/04/01 04:41:27;;;;;;;0.70;0.40;;;12.00;99.90;;;;;;5056260;28;20551;-84
2023/04/01 04:44:11;;;;;;;0.60;0.50;;;12.10;99.90;;;;;;5037972;28;20517;-84
2023/04/01 04:46:45;;;;;;;0.83;0.40;;;12.00;99.90;;;;;;5048430;28;20453;-83
2023/04/01 04:49:20;;;;;;;0.50;0.40;;;11.80;99.90;;;;;;5052634;28;20511;-83
2023/04/01 04:52:26;;;;;;;0.40;0.40;;;11.80;99.90;;;;;;5054579;28;20444;-84
2023/04/01 04:54:55;;;;;;;0.73;0.60;;;12.10;99.90;;;;;;5047592;28;20480;-82
2023/04/01 04:57:39;;;;;;;0.40;0.40;;;12.10;99.90;;;;;;5053519;28;20452;-82
2023/04/01 05:00:15;;;;;;;0.40;0.30;;;12.30;99.90;;;;;;5049499;28;20526;-83
2023/04/01 05:02:53;;;;;;;1.60;0.80;;;12.00;99.90;;;;;;5052246;28;20507;-83
2023/04/01 05:05:39;;;;;;;0.80;0.80;;;11.90;99.90;;;;;;5052801;28;20461;-83
2023/04/01 05:08:10;;;;;;;0.40;0.40;;;11.90;99.90;;;;;;5048855;28;20521;-83
2023/04/01 05:10:40;;;;;;;0.83;0.40;;;12.00;99.90;;;;;;5048277;28;20472;-83
2023/04/01 05:13:32;;;;;;;0.40;0.40;;;12.10;99.90;;;;;;5050734;28;20483;-82
2023/04/01 05:16:27;;;;;;;0.97;0.47;;;11.90;99.90;;;;;;5040293;28;20449;-83
2023/04/01 05:19:25;;;;;;;0.43;0.40;;;12.10;99.90;;;;;;5052376;28;20464;-83
2023/04/01 05:22:15;;;;;;;0.90;0.80;;;12.20;99.90;;;;;;5049935;28;20444;-84
2023/04/01 05:24:58;;;;;;;0.40;0.40;;;11.90;99.90;;;;;;5056644;28;20456;-83
2023/04/01 05:27:51;;;;;;;0.50;0.50;;;12.00;99.90;;;;;;5054489;28;20478;-84
2023/04/01 05:30:39;;;;;;;0.50;0.40;;;12.00;99.90;;;;;;5053362;28;20484;-84
2023/04/01 05:33:32;;;;;;;1.43;0.63;;;12.10;99.90;;;;;;5052817;28;20468;-84
2023/04/01 05:36:20;;;;;;;0.30;0.30;;;11.90;99.90;;;;;;5052158;28;20502;-84
2023/04/01 05:39:38;;;;;;;0.50;0.37;;;11.90;99.90;;;;;;5048379;28;20461;-84
2023/04/01 05:42:39;;;;;;;0.50;0.40;;;11.90;99.90;;;;;;5052836;28;20480;-84
2023/04/01 05:45:22;;;;;;;1.00;0.90;;;11.80;99.90;;;;;;5032665;28;20505;-83
2023/04/01 05:48:08;;;;;;;;;;;;;;;;;;;;;
2023/04/01 05:50:42;;;;;;;0.80;0.50;;;11.90;99.90;;;;;;5054853;28;20581;-83
2023/04/01 05:53:25;;;;;;;0.60;0.60;;;11.80;99.90;;;;;;5052016;28;20487;-83
2023/04/01 05:56:04;;;;;;;0.67;0.50;;;11.70;99.90;;;;;;5047592;28;20456;-86
2023/04/01 06:02:10;;;;;;;1.70;0.40;;;11.80;99.90;;;;;;5050183;28;20476;-84
2023/04/01 06:05:41;;;;;;;0.90;0.50;;;11.70;99.90;;;;;;5053188;28;20833;-83
2023/04/01 06:08:20;;;;;;;0.60;0.40;;;11.70;99.90;;;;;;4995213;28;20454;-84
2023/04/01 06:11:28;;;;;;;1.10;0.57;;;11.70;99.90;;;;;;5002146;28;20503;-85
2023/04/01 06:14:31;;;;;;;0.50;0.50;;;11.70;99.90;;;;;;5049301;28;20460;-83
2023/04/01 06:17:29;;;;;;;0.50;0.50;;;11.70;99.90;;;;;;5027176;28;20449;-82
2023/04/01 06:20:20;;;;;;;0.40;0.40;;;11.60;99.90;;;;;;5059763;28;20456;-83
2023/04/01 06:27:07;;;;;;;1.17;0.60;;;11.70;99.90;;;;;;5042345;28;20539;-83
2023/04/01 06:30:15;;;;;;;0.73;0.50;;;12.00;99.90;;;;;;5066674;28;20506;-82
2023/04/01 06:33:10;;;;;;;0.93;0.50;;;11.90;99.90;;;;;;5061502;28;20469;-80
2023/04/01 06:36:07;;;;;;;0.50;0.50;;;12.00;99.90;;;;;;5051162;28;20479;-83
2023/04/01 06:38:47;;;;;;;0.80;0.70;;;12.10;99.90;;;;;;5048230;28;20465;-83
2023/04/01 06:41:57;;;;;;;1.63;1.30;;;12.20;99.90;;;;;;5054668;28;20492;-84
2023/04/01 06:44:54;;;;;;;0.60;0.60;;;12.10;99.90;;;;;;5028893;28;20451;-83
2023/04/01 06:48:14;;;;;;;2.20;0.60;;;11.90;99.90;;;;;;5035711;28;20457;-84
2023/04/01 06:54:47;;;;;;;0.80;0.50;;;12.00;99.90;;;;;;5059226;28;20455;-84
2023/04/01 06:57:40;;;;;;;0.93;0.93;;;12.00;99.90;;;;;;5061768;28;20463;-82
2023/04/01 07:00:28;;;;;;;1.53;1.43;;;11.80;99.90;;;;;;5060058;28;20468;-82
2023/04/01 07:03:42;;;;;;;1.63;1.07;;;11.70;99.90;;;;;;5051347;28;20869;-83
2023/04/01 07:06:52;;;;;;;0.73;0.73;;;12.00;99.90;;;;;;5058137;28;20469;-83
2023/04/01 07:09:54;;;;;;;1.50;0.90;;;11.90;99.90;;;;;;5051929;28;20541;-83
2023/04/01 07:13:02;;;;;;;1.10;1.00;;;11.80;99.90;;;;;;4956207;28;20477;-83
2023/04/01 07:16:49;;;;;;;0.87;0.87;;;11.70;99.90;;;;;;5057228;28;20459;-83
2023/04/01 07:20:08;;;;;;;0.90;0.60;;;12.00;99.90;;;;;;4949162;28;20452;-83
2023/04/01 07:22:58;;;;;;;1.43;1.20;;;12.00;99.90;;;;;;4959254;28;20836;-83
2023/04/01 07:26:03;;;;;;;1.00;0.87;;;11.90;99.90;;;;;;4974480;28;20447;-83
2023/04/01 07:28:48;;;;;;;3.63;0.80;;;11.90;99.90;;;;;;4962557;28;20472;-83
2023/04/01 07:32:20;;;;;;;0.97;0.70;;;11.90;99.90;;;;;;5054610;28;20473;-84
2023/04/01 07:34:53;;;;;;;0.70;0.70;;;11.80;99.90;;;;;;5067198;28;20445;-82
2023/04/01 07:41:52;;;;;;;1.50;1.40;;;11.70;99.90;;;;;;5074580;28;20419;-81
2023/04/01 07:44:55;;;;;;;1.43;1.00;;;11.80;99.90;;;;;;5076399;28;20467;-82
2023/04/01 07:47:51;;;;;;;3.20;1.20;;;11.80;99.90;;;;;;5210634;22;20475;-82
2023/04/01 07:54:19;;;;;;;0.90;0.73;;;11.70;99.90;;;;;;5024497;28;20488;-83
2023/04/01 07:57:22;;;;;;;1.10;1.00;;;11.80;99.90;;;;;;5199857;22;20634;-83
2023/04/01 08:00:07;;;;;;;2.73;0.90;;;11.80;99.90;;;;;;5085014;28;20440;-83
2023/04/01 08:03:28;;;;;;;1.03;0.90;;;11.80;99.90;;;;;;5061463;28;20468;-84
2023/04/01 08:06:35;;;;;;;1.47;0.80;;;11.80;99.90;;;;;;5043826;28;21038;-84
2023/04/01 08:09:13;;;;;;;1.73;1.20;;;11.80;99.90;;;;;;5049909;28;20932;-83
2023/04/01 08:12:31;;;;;;;0.77;0.77;;;11.80;99.90;;;;;;5055011;28;20460;-85
2023/04/01 08:15:43;;;;;;;2.50;1.23;;;11.80;99.90;;;;;;5045234;28;20492;-84
2023/04/01 08:18:45;;;;;;;1.47;1.07;;;11.90;99.90;;;;;;5059398;28;20491;-84
2023/04/01 08:21:55;;;;;;;1.03;0.90;;;11.90;99.90;;;;;;5059409;28;20459;-84
2023/04/01 08:25:07;;;;;;;1.90;0.90;;;11.90;99.90;;;;;;5032013;28;20479;-84
2023/04/01 08:28:01;;;;;;;0.53;0.53;;;11.90;99.90;;;;;;5050080;28;20815;-84
2023/04/01 08:30:41;;;;;;;0.80;0.80;;;11.80;99.90;;;;;;5055379;28;20529;-85
2023/04/01 08:33:43;;;;;;;0.87;0.67;;;11.80;99.90;;;;;;5048268;28;20476;-84
2023/04/01 08:36:14;;;;;;;0.70;0.70;;;11.80;99.90;;;;;;5046490;28;20445;-84
2023/04/01 08:39:16;;;;;;;0.67;0.67;;;11.80;99.90;;;;;;5053352;28;20452;-83
2023/04/01 08:42:07;;;;;;;0.83;0.73;;;11.80;99.90;;;;;;5049470;28;20598;-84
2023/04/01 08:45:30;;;;;;;0.70;0.70;;;11.80;99.90;;;;;;5055545;28;20461;-84
2023/04/01 08:48:36;;;;;;;1.30;0.70;;;11.80;99.90;;;;;;5034353;28;20464;-84
2023/04/01 08:51:47;;;;;;;1.10;0.80;;;11.90;99.90;;;;;;5049345;28;20559;-83
2023/04/01 08:54:53;;;;;;;0.67;0.67;;;11.90;99.90;;;;;;5052410;28;20506;-83
2023/04/01 08:57:55;;;;;;;0.53;0.53;;;12.00;99.90;;;;;;5061680;28;20563;-83
2023/04/01 09:01:35;;;;;;;;;;;;;;;;;;;;;
2023/04/01 09:04:23;;;;;;;0.60;0.50;;;12.00;99.90;;;;;;4993632;28;20466;-86
2023/04/01 09:07:13;;;;;;;0.53;0.40;;;12.00;99.90;;;;;;4968901;28;20439;-85
2023/04/01 09:14:27;;;;;;;0.60;0.60;;;12.00;99.90;;;;;;4970790;28;20488;-84
2023/04/01 09:17:33;;;;;;;1.00;0.80;;;12.10;99.90;;;;;;4989896;28;20496;-84
2023/04/01 09:20:48;;;;;;;0.40;0.40;;;12.10;99.90;;;;;;4995737;28;20919;-83
2023/04/01 09:24:00;;;;;;;0.70;0.70;;;12.00;99.90;;;;;;4983885;28;20458;-82
2023/04/01 09:27:01;;;;;;;0.60;0.60;;;12.00;99.90;;;;;;5014646;28;20541;-83
2023/04/01 09:32:54;;;;;;;0.83;0.70;;;12.10;99.90;;;;;;5498253;22;20475;-84
2023/04/01 09:36:38;;;;;;;0.53;0.40;;;12.00;99.90;;;;;;5090261;28;21191;-84
2023/04/01 09:39:56;;;;;;;0.70;0.70;;;12.10;99.90;;;;;;5057555;28;20447;-84
2023/04/01 09:43:24;;;;;;;2.13;1.87;;;12.00;99.90;;;;;;4984810;28;20464;-84
2023/04/01 09:46:33;;;;;;;1.80;0.70;;;12.10;99.90;;;;;;4909745;29;20486;-83
2023/04/01 09:49:38;;;;;;;1.10;0.70;;;12.00;99.90;;;;;;4974873;28;20825;-84
2023/04/01 09:52:49;;;;;;;1.93;1.00;;;12.10;99.90;;;;;;4972734;28;20508;-84
2023/04/01 09:55:46;;;;;;;1.23;0.90;;;12.00;99.90;;;;;;4970411;28;20451;-84
2023/04/01 10:02:22;;;;;;;0.67;0.67;;;12.00;99.90;;;;;;4920653;29;21107;-85
2023/04/01 10:05:43;;;;;;;1.07;0.97;;;12.00;99.90;;;;;;4897038;29;20465;-81
2023/04/01 10:09:02;;;;;;;0.70;0.50;;;12.00;99.90;;;;;;4913472;29;20479;-83
2023/04/01 10:11:59;;;;;;;0.97;0.80;;;12.10;99.90;;;;;;4906525;29;20490;-83
2023/04/01 10:15:20;;;;;;;1.43;0.70;;;12.10;99.90;;;;;;4902414;29;20442;-83
2023/04/01 10:18:44;;;;;;;0.80;0.77;;;12.20;99.90;;;;;;4946073;28;20426;-83
2023/04/01 10:21:57;;;;;;;0.70;0.63;;;12.20;99.90;;;;;;4992581;28;20505;-83
2023/04/01 10:25:48;;;;;;;2.50;0.83;;;12.20;99.90;;;;;;5010462;28;20508;-83
2023/04/01 10:32:22;;;;;;;0.60;0.60;;;12.20;99.90;;;;;;5022863;28;20480;-84
2023/04/01 10:35:53;;;;;;;1.53;1.43;;;12.20;99.90;;;;;;5008090;28;20447;-85
2023/04/01 10:39:03;;;;;;;0.70;0.70;;;12.30;99.90;;;;;;5024439;28;20416;-85
2023/04/01 10:42:13;;;;;;;1.00;0.90;;;12.30;99.90;;;;;;5069446;28;20476;-84
2023/04/01 10:46:00;;;;;;;0.80;0.80;;;12.40;99.90;;;;;;5061944;28;20470;-81
2023/04/01 10:48:56;;;;;;;1.20;1.10;;;12.40;99.90;;;;;;5061363;28;20475;-83
2023/04/01 10:51:40;;;;;;;1.17;1.10;;;12.30;99.90;;;;;;5070201;28;20896;-84
2023/04/01 10:58:54;;;;;;;1.10;1.10;;;12.30;99.90;;;;;;5030136;28;20419;-84
2023/04/01 11:02:24;;;;;;;1.33;1.33;;;12.40;99.90;;;;;;5064968;28;20829;-83
2023/04/01 11:05:34;;;;;;;1.33;1.23;;;12.50;99.90;;;;;;5066712;28;20479;-84
2023/04/01 11:08:32;;;;;;;0.73;0.73;;;12.60;99.90;;;;;;5062412;28;20458;-84
2023/04/01 11:11:35;;;;;;;;;;;;;;;;;;;;;
2023/04/01 11:15:04;;;;;;;0.90;0.90;;;12.80;99.90;;;;;;5072294;28;20443;-83
2023/04/01 11:17:59;;;;;;;1.03;1.03;;;12.70;99.90;;;;;;5060106;28;20509;-83
2023/04/01 11:21:27;;;;;;;0.90;0.83;;;12.70;99.90;;;;;;5068392;28;20424;-83
2023/04/01 11:24:03;;;;;;;0.87;0.87;;;12.80;99.90;;;;;;5071625;28;20475;-84
2023/04/01 11:26:51;;;;;;;1.00;0.80;;;12.80;99.90;;;;;;5058271;28;20451;-84
2023/04/01 11:29:59;;;;;;;1.03;1.00;;;12.80;99.90;;;;;;5066774;28;20535;-83
2023/04/01 11:33:04;;;;;;;0.93;0.93;;;12.90;99.90;;;;;;5064748;28;20541;-84
2023/04/01 11:36:10;;;;;;;0.80;0.80;;;13.00;99.90;;;;;;5066285;28;20460;-84
2023/04/01 11:39:41;;;;;;;0.80;0.80;;;13.00;99.90;;;;;;5067717;28;20439;-84
2023/04/01 11:42:58;;;;;;;1.20;1.20;;;12.90;99.90;;;;;;5064329;28;20468;-83
2023/04/01 11:45:45;;;;;;;0.73;0.73;;;12.90;99.90;;;;;;5063194;28;20530;-84
2023/04/01 11:49:13;;;;;;;1.27;1.17;;;12.80;99.90;;;;;;5067871;28;20456;-85
2023/04/01 11:52:41;;;;;;;0.73;0.73;;;12.80;99.90;;;;;;5006390;28;20487;-83
2023/04/01 11:55:34;;;;;;;0.70;0.70;;;12.90;99.90;;;;;;5070480;28;20497;-84
2023/04/01 11:58:23;;;;;;;0.80;0.80;;;12.80;99.90;;;;;;5075148;28;20977;-83
2023/04/01 12:01:56;;;;;;;0.90;0.90;;;12.90;99.90;;;;;;5067975;28;20476;-84
2023/04/01 12:12:55;;;;;;;1.50;1.30;;;12.70;99.90;;;;;;4991172;28;20537;-85
2023/04/01 12:16:18;;;;;;;1.43;1.17;;;12.80;99.90;;;;;;4924850;29;20488;-84
2023/04/01 12:36:57;;;;;;;0.87;0.87;;;13.30;99.90;;;;;;5048278;28;20520;-84
2023/04/01 12:44:07;;;;;;;1.40;1.30;;;13.20;99.90;;;;;;5098905;22;20570;-83
2023/04/01 12:51:04;;;;;;;0.70;0.70;;;13.20;99.90;;;;;;5068454;28;21226;-83
2023/04/01 12:54:11;;;;;;;1.20;1.07;;;13.20;99.90;;;;;;5044918;28;20480;-83
2023/04/01 12:57:53;;;;;;;0.70;0.70;;;13.20;99.90;;;;;;5013681;28;20461;-83
2023/04/01 13:00:55;;;;;;;1.50;1.20;;;13.30;99.90;;;;;;5015436;28;20457;-85
2023/04/01 13:03:51;;;;;;;0.90;0.90;;;13.30;99.90;;;;;;5027971;28;20474;-84
2023/04/01 13:06:59;;;;;;;1.23;1.13;;;13.30;99.90;;;;;;5042164;28;20452;-84
2023/04/01 13:10:07;;;;;;;1.10;1.00;;;13.40;99.90;;;;;;5032450;28;20445;-84
2023/04/01 13:13:32;;;;;;;1.17;1.10;;;13.40;99.90;;;;;;5036781;28;20436;-84
2023/04/01 13:16:38;;;;;;;0.90;0.90;;;13.40;99.90;;;;;;5001521;28;20565;-83
2023/04/01 13:20:18;;;;;;;1.73;0.90;;;13.30;99.90;;;;;;5018902;28;20430;-83
2023/04/01 13:23:58;;;;;;;1.97;1.60;;;13.20;99.90;;;;;;5001489;28;20425;-83
2023/04/01 13:30:54;;;;;;;1.00;1.00;;;13.20;99.90;;;;;;4971443;28;20514;-84
2023/04/01 13:34:19;;;;;;;1.00;1.00;;;13.20;99.90;;;;;;4984290;28;20561;-82
2023/04/01 13:37:55;;;;;;;1.57;1.47;;;13.20;99.90;;;;;;4997569;28;20398;-85
2023/04/01 13:41:20;;;;;;;0.97;0.97;;;13.10;99.90;;;;;;4918848;29;20443;-85
2023/04/01 13:44:23;;;;;;;1.43;1.30;;;13.10;99.90;;;;;;4929369;28;20896;-84
2023/04/01 13:47:30;;;;;;;1.37;1.37;;;13.10;99.90;;;;;;4973107;28;20558;-85
2023/04/01 13:50:57;;;;;;;2.43;1.60;;;13.10;99.90;;;;;;4954044;28;20455;-83
2023/04/01 13:54:33;;;;;;;2.63;1.90;;;13.10;99.90;;;;;;4969942;28;20472;-84
2023/04/01 13:58:10;;;;;;;2.33;2.13;;;13.00;99.90;;;;;;4960698;28;20432;-84
2023/04/01 14:01:27;;;;;;;1.83;1.73;;;13.00;99.90;;;;;;4970381;28;20539;-84
2023/04/01 14:05:10;;;;;;;2.13;2.00;;;13.00;99.90;;;;;;4967987;28;20482;-83
2023/04/01 14:08:10;;;;;;;2.00;1.90;;;13.10;99.90;;;;;;4972173;28;20479;-80
2023/04/01 14:11:37;;;;;;;1.60;1.50;;;13.30;99.90;;;;;;5002326;28;20487;-83
2023/04/01 14:14:39;;;;;;;1.97;1.70;;;13.30;99.90;;;;;;4973359;28;20470;-83
2023/04/01 14:18:02;;;;;;;2.60;2.40;;;13.20;99.90;;;;;;5040641;28;20457;-83
2023/04/01 14:20:48;;;;;;;2.50;2.07;;;13.20;99.90;;;;;;5033212;28;20449;-83
2023/04/01 14:24:10;;;;;;;2.17;1.93;;;13.10;99.90;;;;;;5029555;28;20475;-84
2023/04/01 14:27:13;;;;;;;1.83;1.73;;;13.00;99.90;;;;;;5033265;28;21038;-84
2023/04/01 14:30:24;;;;;;;1.60;1.50;;;13.10;99.90;;;;;;5040510;28;20540;-82
2023/04/01 14:34:09;;;;;;;2.13;2.00;;;13.00;99.90;;;;;;5034178;28;20504;-83
2023/04/01 14:37:35;;;;;;;1.50;1.40;;;13.00;99.90;;;;;;5015257;28;20457;-84
2023/04/01 14:40:45;;;;;;;1.90;1.80;;;13.00;99.90;;;;;;5029450;28;20511;-84
2023/04/01 14:44:19;;;;;;;1.80;1.70;;;13.10;99.90;;;;;;5031118;28;20520;-81
2023/04/01 14:47:26;;;;;;;1.80;1.70;;;13.00;99.90;;;;;;5036320;28;20456;-82
2023/04/01 14:50:22;;;;;;;1.70;1.60;;;13.00;99.90;;;;;;5032269;28;20837;-83
2023/04/01 14:53:41;;;;;;;1.70;1.60;;;13.00;99.90;;;;;;5033738;28;20545;-83
2023/04/01 14:56:45;;;;;;;2.77;1.60;;;12.90;99.90;;;;;;5028021;28;20457;-82
2023/04/01 15:07:28;;;;;;;1.90;1.80;;;13.10;99.90;;;;;;5037618;28;20961;-82
2023/04/01 15:10:44;;;;;;;1.87;1.73;;;13.10;99.90;;;;;;4981804;28;20460;-83
2023/04/01 15:13:49;;;;;;;1.60;1.50;;;13.10;99.90;;;;;;4998865;28;20511;-84
2023/04/01 15:16:35;;;;;;;1.57;1.47;;;13.20;99.90;;;;;;4975449;28;20455;-81
2023/04/01 15:20:13;;;;;;;1.93;1.83;;;13.10;99.90;;;;;;5006796;28;20429;-83
2023/04/01 15:23:23;;;;;;;2.67;1.70;;;13.10;99.90;;;;;;5034226;28;20488;-83
2023/04/01 15:26:36;;;;;;;1.60;1.50;;;13.10;99.90;;;;;;5045308;28;20543;-83
2023/04/01 15:30:18;;;;;;;1.60;1.50;;;13.10;99.90;;;;;;5029729;28;20441;-83
2023/04/01 15:33:38;;;;;;;2.73;2.27;;;13.10;99.90;;;;;;5035144;28;20474;-83
2023/04/01 15:36:51;;;;;;;2.07;1.97;;;13.10;99.90;;;;;;5037424;28;20445;-83
2023/04/01 15:40:08;;;;;;;2.00;1.90;;;13.20;99.90;;;;;;5037812;28;20456;-83
2023/04/01 15:43:31;;;;;;;1.90;1.80;;;13.10;99.90;;;;;;5037797;28;20481;-82
2023/04/01 15:50:17;;;;;;;2.50;2.30;;;13.10;99.90;;;;;;5040538;28;20433;-83
2023/04/01 15:53:30;;;;;;;2.60;2.40;;;13.00;99.90;;;;;;5034591;28;20858;-83
2023/04/01 15:56:35;;;;;;;3.50;2.70;;;13.00;99.90;;;;;;5036473;28;20445;-83
2023/04/01 15:59:30;;;;;;;2.10;2.00;;;13.00;99.90;;;;;;5036962;28;20865;-83
2023/04/01 16:02:46;;;;;;;2.40;2.20;;;13.00;99.90;;;;;;5013994;28;20476;-85
2023/04/01 16:06:05;;;;;;;3.03;2.83;;;12.90;99.90;;;;;;5042888;28;20647;-82
2023/04/01 16:09:06;;;;;;;1.90;1.80;;;13.00;99.90;;;;;;5037020;28;20467;-83
2023/04/01 16:11:54;;;;;;;2.00;1.90;;;13.00;99.90;;;;;;5031625;28;20485;-83
2023/04/01 16:15:19;;;;;;;2.30;2.10;;;13.00;99.90;;;;;;5038633;28;20453;-81
2023/04/01 16:18:27;;;;;;;2.33;2.17;;;12.90;99.90;;;;;;5042738;28;20544;-83
2023/04/01 16:21:51;;;;;;;2.50;2.30;;;12.90;99.90;;;;;;5038783;28;20491;-81
2023/04/01 16:25:34;;;;;;;;;;;;;;;;;;;;;
2023/04/01 16:28:40;;;;;;;2.47;2.33;;;12.80;99.90;;;;;;5043268;28;20497;-82
2023/04/01 16:31:57;;;;;;;2.00;1.90;;;12.90;99.90;;;;;;5035176;28;20473;-82
2023/04/01 16:38:54;;;;;;;2.27;2.17;;;12.70;99.90;;;;;;5068515;28;20465;-84
2023/04/01 16:41:56;;;;;;;2.40;2.20;;;12.60;99.90;;;;;;5081503;28;20460;-83
2023/04/01 16:44:27;;;;;;;2.57;2.37;;;12.60;99.90;;;;;;5083789;28;20700;-82
2023/04/01 16:47:21;;;;;;;2.57;2.37;;;12.60;99.90;;;;;;5071151;28;20444;-81
2023/04/01 16:50:32;;;;;;;3.10;2.13;;;12.50;99.90;;;;;;5074962;28;20440;-82
2023/04/01 16:53:49;;;;;;;2.43;2.23;;;12.50;99.90;;;;;;5061566;28;20450;-82
2023/04/01 16:57:02;;;;;;;2.80;2.60;;;12.50;99.90;;;;;;5049190;28;20460;-81
2023/04/01 16:59:50;;;;;;;2.93;2.00;;;12.50;99.90;;;;;;5053772;28;20437;-83
2023/04/01 17:02:32;;;;;;;2.50;2.37;;;12.40;99.90;;;;;;5052680;28;20453;-83
2023/04/01 17:05:51;;;;;;;3.40;2.73;;;12.40;99.90;;;;;;5044133;28;20433;-83
2023/04/01 17:09:00;;;;;;;3.30;3.00;;;12.40;99.90;;;;;;5051420;28;20606;-83
2023/04/01 17:11:39;;;;;;;2.93;2.63;;;12.50;99.90;;;;;;5042759;28;20476;-83
2023/04/01 17:14:45;;;;;;;2.13;1.97;;;12.50;99.90;;;;;;5051919;28;20528;-84
2023/04/01 17:17:45;;;;;;;4.33;4.00;;;12.50;99.90;;;;;;5045824;28;20460;-83
2023/04/01 17:24:23;;;;;;;2.73;2.53;;;12.40;99.90;;;;;;5249013;22;20496;-82
2023/04/01 17:27:08;;;;;;;2.73;2.53;;;12.50;99.90;;;;;;5071363;28;20448;-81
2023/04/01 17:30:29;;;;;;;2.90;2.67;;;12.50;99.90;;;;;;5048267;28;20951;-83
2023/04/01 17:33:27;;;;;;;2.47;2.37;;;12.40;99.90;;;;;;5067264;28;20590;-84
2023/04/01 17:36:32;;;;;;;2.10;1.87;;;12.40;99.90;;;;;;5047667;28;20435;-82
2023/04/01 17:39:25;;;;;;;2.40;2.20;;;12.30;99.90;;;;;;5072650;28;20466;-83
2023/04/01 17:42:37;;;;;;;2.73;2.53;;;12.30;99.90;;;;;;5076000;28;20455;-83
2023/04/01 17:45:56;;;;;;;2.27;1.93;;;12.30;99.90;;;;;;5066176;28;20444;-82